Wetterdaten: Woche 06.04.26 - 12.04.26 (KW15)
Datum Zeit Temp. Aussen Temp. o. S. Temp +5cm Feuchte Auss Luftdruck Regen Sonnenschein Solar Windböen Empfang
06.04.2026 00:00 8,8 °C 8,2 °C 4,9 °C 81 % 1024,8 hPa 0,0 l/m² 0,00 h 0 W/m² 8,4 km/h (2 Bft) 96,16 %
06.04.2026 01:00 8,8 °C 7,9 °C 4,6 °C 83 % 1025,4 hPa 0,0 l/m² 0,00 h 0 W/m² 5,5 km/h (1 Bft) 98,53 %
06.04.2026 02:00 8,4 °C 7,7 °C 4,3 °C 85 % 1025,8 hPa 0,0 l/m² 0,00 h 0 W/m² 1,5 km/h (1 Bft) 97,94 %
06.04.2026 03:00 7,8 °C 6,5 °C 3,3 °C 85 % 1026,1 hPa 0,0 l/m² 0,00 h 0 W/m² 0,0 km/h (0 Bft) 96,36 %
06.04.2026 04:00 6,6 °C 5,1 °C 2,0 °C 87 % 1026,3 hPa 0,0 l/m² 0,00 h 0 W/m² 0,0 km/h (0 Bft) 98,58 %
06.04.2026 05:00 5,5 °C 3,8 °C 0,8 °C 89 % 1026,7 hPa 0,0 l/m² 0,00 h 0 W/m² 0,0 km/h (0 Bft) 98,24 %
06.04.2026 06:00 4,7 °C 3,4 °C 0,5 °C 91 % 1027,3 hPa 0,0 l/m² 0,00 h 3 W/m² 0,0 km/h (0 Bft) 97,29 %
06.04.2026 07:00 4,4 °C 3,8 °C 0,8 °C 92 % 1028,0 hPa 0,0 l/m² 0,13 h 24 W/m² 0,3 km/h (0 Bft) 95,92 %
06.04.2026 08:00 5,5 °C 6,0 °C 2,2 °C 94 % 1028,5 hPa 0,0 l/m² 0,00 h 72 W/m² 4,4 km/h (1 Bft) 99,12 %
06.04.2026 09:00 7,3 °C 9,4 °C 4,1 °C 91 % 1029,1 hPa 0,0 l/m² 0,77 h 263 W/m² 5,0 km/h (1 Bft) 93,98 %
06.04.2026 10:00 9,8 °C 13,7 °C 9,3 °C 80 % 1029,4 hPa 0,0 l/m² 0,57 h 284 W/m² 6,4 km/h (2 Bft) 97,85 %
06.04.2026 11:00 11,7 °C 15,8 °C 9,5 °C 67 % 1029,6 hPa 0,0 l/m² 0,80 h 454 W/m² 7,3 km/h (2 Bft) 97,31 %
06.04.2026 12:00 13,6 °C 22,6 °C 16,3 °C 56 % 1029,6 hPa 0,0 l/m² 1,00 h 694 W/m² 10,7 km/h (2 Bft) 98,30 %
06.04.2026 13:00 15,0 °C 24,5 °C 14,9 °C 52 % 1029,4 hPa 0,0 l/m² 1,00 h 732 W/m² 10,6 km/h (2 Bft) 98,45 %
06.04.2026 14:00 16,5 °C 25,2 °C 12,0 °C 51 % 1029,1 hPa 0,0 l/m² 1,00 h 728 W/m² 12,3 km/h (3 Bft) 98,06 %
06.04.2026 15:00 16,8 °C 23,5 °C 12,2 °C 48 % 1028,7 hPa 0,0 l/m² 1,00 h 670 W/m² 13,6 km/h (3 Bft) 97,41 %
06.04.2026 16:00 16,9 °C 21,7 °C 12,5 °C 48 % 1028,3 hPa 0,0 l/m² 1,00 h 553 W/m² 10,8 km/h (2 Bft) 97,56 %
06.04.2026 17:00 16,0 °C 18,3 °C 11,5 °C 49 % 1028,0 hPa 0,0 l/m² 1,00 h 305 W/m² 7,4 km/h (2 Bft) 96,52 %
06.04.2026 18:00 16,1 °C 18,3 °C 11,4 °C 48 % 1027,7 hPa 0,0 l/m² 0,90 h 196 W/m² 5,7 km/h (1 Bft) 98,43 %
06.04.2026 19:00 14,0 °C 12,9 °C 9,1 °C 54 % 1027,5 hPa 0,0 l/m² 0,03 h 34 W/m² 4,8 km/h (1 Bft) 97,59 %
06.04.2026 20:00 12,0 °C 10,3 °C 7,0 °C 60 % 1027,6 hPa 0,0 l/m² 0,00 h 8 W/m² 1,8 km/h (1 Bft) 96,56 %
06.04.2026 21:00 10,6 °C 8,4 °C 5,2 °C 67 % 1027,7 hPa 0,0 l/m² 0,00 h 0 W/m² 0,1 km/h (0 Bft) 97,34 %
06.04.2026 22:00 9,2 °C 7,0 °C 3,9 °C 74 % 1027,7 hPa 0,0 l/m² 0,00 h 0 W/m² 0,0 km/h (0 Bft) 99,08 %
06.04.2026 23:00 7,9 °C 6,1 °C 3,0 °C 77 % 1027,7 hPa 0,0 l/m² 0,00 h 0 W/m² 0,0 km/h (0 Bft) 97,48 %
07.04.2026 00:00 6,9 °C 5,6 °C 2,5 °C 80 % 1027,7 hPa 0,0 l/m² 0,00 h 0 W/m² 0,1 km/h (0 Bft) 95,42 %
07.04.2026 01:00 6,3 °C 5,3 °C 2,2 °C 80 % 1027,7 hPa 0,0 l/m² 0,00 h 0 W/m² 0,1 km/h (0 Bft) 98,93 %
07.04.2026 02:00 5,9 °C 4,4 °C 1,6 °C 81 % 1027,5 hPa 0,0 l/m² 0,00 h 0 W/m² 0,1 km/h (0 Bft) 96,85 %
07.04.2026 03:00 5,2 °C 4,1 °C 1,0 °C 82 % 1027,4 hPa 0,0 l/m² 0,00 h 0 W/m² 0,0 km/h (0 Bft) 96,79 %
07.04.2026 04:00 4,6 °C 3,3 °C 0,4 °C 83 % 1027,4 hPa 0,0 l/m² 0,00 h 0 W/m² 0,0 km/h (0 Bft) 97,29 %
07.04.2026 05:00 4,1 °C 3,3 °C 0,3 °C 85 % 1027,5 hPa 0,0 l/m² 0,00 h 0 W/m² 0,9 km/h (0 Bft) 95,63 %
07.04.2026 06:00 4,0 °C 3,3 °C 0,0 °C 84 % 1027,3 hPa 0,0 l/m² 0,00 h 4 W/m² 1,7 km/h (1 Bft) 98,53 %
07.04.2026 07:00 4,0 °C 3,3 °C 0,2 °C 85 % 1027,4 hPa 0,0 l/m² 0,00 h 14 W/m² 1,2 km/h (1 Bft) 97,87 %
07.04.2026 08:00 4,6 °C 4,7 °C 1,2 °C 87 % 1027,8 hPa 0,0 l/m² 0,00 h 28 W/m² 2,2 km/h (1 Bft) 95,19 %
07.04.2026 09:00 7,4 °C 11,6 °C 4,0 °C 84 % 1027,9 hPa 0,0 l/m² 0,87 h 315 W/m² 4,8 km/h (1 Bft) 99,09 %
07.04.2026 10:00 11,8 °C 15,3 °C 10,3 °C 66 % 1028,0 hPa 0,0 l/m² 0,63 h 333 W/m² 9,1 km/h (2 Bft) 95,00 %
07.04.2026 11:00 14,1 °C 17,9 °C 10,8 °C 58 % 1027,9 hPa 0,0 l/m² 0,63 h 451 W/m² 13,8 km/h (3 Bft) 96,38 %
07.04.2026 12:00 16,4 °C 27,3 °C 17,5 °C 51 % 1027,6 hPa 0,0 l/m² 1,00 h 744 W/m² 13,9 km/h (3 Bft) 96,50 %
07.04.2026 13:00 17,9 °C 28,5 °C 16,5 °C 45 % 1027,3 hPa 0,0 l/m² 1,00 h 778 W/m² 12,0 km/h (2 Bft) 98,14 %
07.04.2026 14:00 19,1 °C 28,8 °C 14,2 °C 43 % 1026,9 hPa 0,0 l/m² 1,00 h 761 W/m² 13,3 km/h (3 Bft) 97,98 %
07.04.2026 15:00 19,8 °C 28,0 °C 15,3 °C 42 % 1026,2 hPa 0,0 l/m² 1,00 h 692 W/m² 13,4 km/h (3 Bft) 98,03 %
07.04.2026 16:00 20,1 °C 26,0 °C 16,1 °C 40 % 1025,8 hPa 0,0 l/m² 1,00 h 577 W/m² 13,6 km/h (3 Bft) 95,23 %
07.04.2026 17:00 19,9 °C 24,5 °C 15,5 °C 38 % 1025,5 hPa 0,0 l/m² 1,00 h 425 W/m² 11,1 km/h (2 Bft) 99,58 %
07.04.2026 18:00 19,1 °C 22,5 °C 15,0 °C 39 % 1025,4 hPa 0,0 l/m² 0,87 h 221 W/m² 10,2 km/h (2 Bft) 97,26 %
07.04.2026 19:00 16,0 °C 14,7 °C 11,2 °C 45 % 1025,2 hPa 0,0 l/m² 0,00 h 21 W/m² 7,9 km/h (2 Bft) 97,46 %
07.04.2026 20:00 13,5 °C 11,8 °C 8,5 °C 53 % 1025,4 hPa 0,0 l/m² 0,00 h 7 W/m² 3,4 km/h (1 Bft) 98,68 %
07.04.2026 21:00 11,9 °C 10,1 °C 6,9 °C 59 % 1025,8 hPa 0,0 l/m² 0,00 h 0 W/m² 0,5 km/h (0 Bft) 96,54 %
07.04.2026 22:00 10,5 °C 8,9 °C 6,0 °C 63 % 1026,0 hPa 0,0 l/m² 0,00 h 0 W/m² 0,0 km/h (0 Bft) 97,18 %
07.04.2026 23:00 9,4 °C 7,9 °C 5,0 °C 66 % 1025,7 hPa 0,0 l/m² 0,00 h 0 W/m² 0,0 km/h (0 Bft) 96,46 %
08.04.2026 00:00 8,5 °C 7,0 °C 4,1 °C 67 % 1025,8 hPa 0,0 l/m² 0,00 h 0 W/m² 0,0 km/h (0 Bft) 97,60 %
08.04.2026 01:00 7,8 °C 6,6 °C 3,5 °C 68 % 1026,1 hPa 0,0 l/m² 0,00 h 0 W/m² 0,0 km/h (0 Bft) 95,80 %
08.04.2026 02:00 7,2 °C 5,9 °C 3,0 °C 70 % 1026,4 hPa 0,0 l/m² 0,00 h 0 W/m² 0,0 km/h (0 Bft) 96,90 %
08.04.2026 03:00 6,4 °C 5,2 °C 2,2 °C 72 % 1026,3 hPa 0,0 l/m² 0,00 h 0 W/m² 0,8 km/h (0 Bft) 98,27 %
08.04.2026 04:00 5,8 °C 4,5 °C 1,5 °C 74 % 1026,3 hPa 0,0 l/m² 0,00 h 0 W/m² 0,8 km/h (0 Bft) 93,96 %
08.04.2026 05:00 5,2 °C 3,8 °C 0,8 °C 77 % 1026,2 hPa 0,0 l/m² 0,00 h 0 W/m² 0,5 km/h (0 Bft) 97,93 %
08.04.2026 06:00 4,5 °C 3,3 °C 0,3 °C 79 % 1026,3 hPa 0,0 l/m² 0,00 h 4 W/m² 0,2 km/h (0 Bft) 97,35 %
08.04.2026 07:00 4,0 °C 3,2 °C 0,1 °C 81 % 1026,4 hPa 0,0 l/m² 0,00 h 13 W/m² 0,0 km/h (0 Bft) 98,28 %
08.04.2026 08:00 4,7 °C 5,2 °C 1,7 °C 84 % 1026,4 hPa 0,0 l/m² 0,00 h 25 W/m² 0,6 km/h (0 Bft) 97,87 %
08.04.2026 09:00 9,0 °C 13,5 °C 5,7 °C 73 % 1026,5 hPa 0,0 l/m² 0,90 h 366 W/m² 7,4 km/h (2 Bft) 96,32 %
08.04.2026 10:00 13,6 °C 15,7 °C 11,7 °C 53 % 1026,5 hPa 0,0 l/m² 0,67 h 370 W/m² 13,4 km/h (3 Bft) 99,51 %
08.04.2026 11:00 15,4 °C 17,8 °C 12,2 °C 49 % 1026,5 hPa 0,0 l/m² 0,77 h 493 W/m² 11,9 km/h (2 Bft) 96,60 %
08.04.2026 12:00 18,5 °C 28,5 °C 20,2 °C 45 % 1026,2 hPa 0,0 l/m² 1,00 h 759 W/m² 11,1 km/h (2 Bft) 97,42 %
08.04.2026 13:00 20,5 °C 29,1 °C 19,7 °C 39 % 1025,8 hPa 0,0 l/m² 1,00 h 793 W/m² 13,1 km/h (3 Bft) 95,04 %
08.04.2026 14:00 22,0 °C 30,3 °C 17,0 °C 37 % 1025,3 hPa 0,0 l/m² 1,00 h 761 W/m² 10,5 km/h (2 Bft) 97,26 %
08.04.2026 15:00 22,9 °C 29,3 °C 17,9 °C 37 % 1024,7 hPa 0,0 l/m² 1,00 h 671 W/m² 9,7 km/h (2 Bft) 97,94 %
08.04.2026 16:00 23,2 °C 29,0 °C 18,7 °C 39 % 1024,0 hPa 0,0 l/m² 1,00 h 588 W/m² 10,4 km/h (2 Bft) 95,57 %
08.04.2026 17:00 23,3 °C 27,2 °C 18,2 °C 40 % 1023,5 hPa 0,0 l/m² 0,90 h 372 W/m² 7,9 km/h (2 Bft) 98,29 %
08.04.2026 18:00 22,0 °C 23,0 °C 16,7 °C 44 % 1023,2 hPa 0,0 l/m² 1,00 h 168 W/m² 6,0 km/h (2 Bft) 97,86 %
08.04.2026 19:00 19,5 °C 18,8 °C 14,1 °C 50 % 1023,1 hPa 0,0 l/m² 0,30 h 56 W/m² 5,3 km/h (1 Bft) 95,84 %
08.04.2026 20:00 16,8 °C 14,8 °C 11,3 °C 54 % 1023,2 hPa 0,0 l/m² 0,03 h 10 W/m² 5,2 km/h (1 Bft) 98,77 %
08.04.2026 21:00 14,6 °C 12,8 °C 9,4 °C 58 % 1023,4 hPa 0,0 l/m² 0,00 h 0 W/m² 3,9 km/h (1 Bft) 95,93 %
08.04.2026 22:00 13,4 °C 11,9 °C 8,3 °C 59 % 1023,4 hPa 0,0 l/m² 0,00 h 0 W/m² 2,7 km/h (1 Bft) 98,45 %
08.04.2026 23:00 12,2 °C 10,3 °C 6,8 °C 63 % 1023,0 hPa 0,0 l/m² 0,00 h 0 W/m² 0,9 km/h (0 Bft) 97,14 %
09.04.2026 00:00 10,9 °C 9,2 °C 5,7 °C 66 % 1022,8 hPa 0,0 l/m² 0,00 h 0 W/m² 0,2 km/h (0 Bft) 98,01 %
09.04.2026 01:00 9,9 °C 8,4 °C 5,1 °C 69 % 1022,6 hPa 0,0 l/m² 0,00 h 0 W/m² 0,6 km/h (0 Bft) 95,96 %
09.04.2026 02:00 10,5 °C 10,4 °C 6,9 °C 64 % 1022,2 hPa 0,0 l/m² 0,00 h 0 W/m² 10,0 km/h (2 Bft) 97,80 %
09.04.2026 03:00 10,8 °C 9,6 °C 6,3 °C 60 % 1021,6 hPa 0,0 l/m² 0,00 h 0 W/m² 5,2 km/h (1 Bft) 97,49 %
09.04.2026 04:00 10,3 °C 9,3 °C 6,0 °C 60 % 1021,1 hPa 0,0 l/m² 0,00 h 0 W/m² 6,2 km/h (2 Bft) 97,87 %
09.04.2026 05:00 9,6 °C 8,3 °C 5,0 °C 62 % 1020,9 hPa 0,0 l/m² 0,00 h 0 W/m² 5,6 km/h (1 Bft) 96,60 %
09.04.2026 06:00 9,1 °C 8,1 °C 4,9 °C 62 % 1020,8 hPa 0,0 l/m² 0,00 h 0 W/m² 8,1 km/h (2 Bft) 98,84 %
09.04.2026 07:00 8,8 °C 8,0 °C 4,7 °C 64 % 1020,7 hPa 0,0 l/m² 0,00 h 21 W/m² 8,1 km/h (2 Bft) 95,98 %
09.04.2026 08:00 9,5 °C 9,4 °C 5,7 °C 64 % 1020,8 hPa 0,0 l/m² 0,00 h 41 W/m² 13,5 km/h (3 Bft) 96,71 %
09.04.2026 09:00 11,9 °C 13,4 °C 8,0 °C 59 % 1020,5 hPa 0,0 l/m² 0,73 h 284 W/m² 16,3 km/h (3 Bft) 98,14 %
09.04.2026 10:00 13,9 °C 14,7 °C 10,4 °C 55 % 1020,4 hPa 0,0 l/m² 0,90 h 283 W/m² 15,4 km/h (3 Bft) 98,08 %
09.04.2026 11:00 15,8 °C 18,1 °C 12,9 °C 52 % 1020,0 hPa 0,0 l/m² 0,90 h 496 W/m² 16,2 km/h (3 Bft) 97,17 %
09.04.2026 12:00 18,5 °C 23,3 °C 17,8 °C 48 % 1019,4 hPa 0,0 l/m² 1,00 h 589 W/m² 15,0 km/h (3 Bft) 96,19 %
09.04.2026 13:00 20,5 °C 26,5 °C 18,8 °C 45 % 1018,6 hPa 0,0 l/m² 1,00 h 648 W/m² 13,5 km/h (3 Bft) 95,49 %
09.04.2026 14:00 22,2 °C 27,9 °C 17,9 °C 42 % 1017,9 hPa 0,0 l/m² 1,00 h 673 W/m² 17,4 km/h (3 Bft) 99,43 %
09.04.2026 15:00 23,3 °C 26,3 °C 18,8 °C 41 % 1017,2 hPa 0,0 l/m² 0,77 h 516 W/m² 14,4 km/h (3 Bft) 95,91 %
09.04.2026 16:00 22,4 °C 22,5 °C 17,9 °C 43 % 1016,7 hPa 0,0 l/m² 0,07 h 227 W/m² 10,5 km/h (2 Bft) 98,37 %
09.04.2026 17:00 22,1 °C 22,0 °C 17,2 °C 46 % 1016,0 hPa 0,0 l/m² 0,00 h 152 W/m² 8,0 km/h (2 Bft) 97,87 %
09.04.2026 18:00 21,6 °C 20,7 °C 16,3 °C 47 % 1015,4 hPa 0,0 l/m² 0,00 h 71 W/m² 5,2 km/h (1 Bft) 96,33 %
09.04.2026 19:00 21,0 °C 19,7 °C 15,4 °C 48 % 1014,6 hPa 0,0 l/m² 0,00 h 36 W/m² 4,9 km/h (1 Bft) 96,40 %
09.04.2026 20:00 19,8 °C 17,6 °C 13,0 °C 54 % 1014,3 hPa 0,0 l/m² 0,00 h 7 W/m² 0,9 km/h (0 Bft) 98,31 %
09.04.2026 21:00 18,4 °C 17,2 °C 13,0 °C 54 % 1014,1 hPa 0,0 l/m² 0,00 h 0 W/m² 4,2 km/h (1 Bft) 97,02 %
09.04.2026 22:00 17,8 °C 16,5 °C 12,3 °C 60 % 1013,9 hPa 0,0 l/m² 0,00 h 0 W/m² 5,5 km/h (1 Bft) 98,62 %
09.04.2026 23:00 16,8 °C 15,4 °C 9,2 °C 70 % 1013,6 hPa 0,2 l/m² 0,00 h 0 W/m² 4,7 km/h (1 Bft) 96,67 %
10.04.2026 00:00 16,3 °C 15,3 °C 11,2 °C 77 % 1013,5 hPa 0,0 l/m² 0,00 h 0 W/m² 12,2 km/h (2 Bft) 97,06 %
10.04.2026 01:00 14,9 °C 13,8 °C 10,2 °C 80 % 1014,9 hPa 0,0 l/m² 0,00 h 0 W/m² 30,6 km/h (5 Bft) 99,14 %
10.04.2026 02:00 12,4 °C 11,7 °C 8,2 °C 79 % 1015,9 hPa 0,0 l/m² 0,00 h 0 W/m² 21,9 km/h (4 Bft) 96,74 %
10.04.2026 03:00 11,2 °C 10,4 °C 7,1 °C 78 % 1016,5 hPa 0,0 l/m² 0,00 h 0 W/m² 17,0 km/h (3 Bft) 97,44 %
10.04.2026 04:00 10,1 °C 9,3 °C 6,0 °C 81 % 1017,3 hPa 0,0 l/m² 0,00 h 0 W/m² 19,5 km/h (3 Bft) 98,50 %
10.04.2026 05:00 9,3 °C 8,5 °C 5,3 °C 81 % 1018,2 hPa 0,0 l/m² 0,00 h 0 W/m² 18,2 km/h (3 Bft) 97,52 %
10.04.2026 06:00 8,9 °C 8,2 °C 4,9 °C 77 % 1018,9 hPa 0,0 l/m² 0,00 h 0 W/m² 21,9 km/h (4 Bft) 96,51 %
10.04.2026 07:00 8,6 °C 7,8 °C 4,4 °C 75 % 1019,3 hPa 0,0 l/m² 0,00 h 20 W/m² 22,6 km/h (4 Bft) 99,55 %
10.04.2026 08:00 8,4 °C 8,1 °C 4,6 °C 76 % 1019,7 hPa 0,0 l/m² 0,00 h 80 W/m² 17,1 km/h (3 Bft) 96,52 %
10.04.2026 09:00 9,0 °C 10,0 °C 5,6 °C 75 % 1019,7 hPa 0,0 l/m² 0,43 h 189 W/m² 17,2 km/h (3 Bft) 94,95 %
10.04.2026 10:00 9,8 °C 11,2 °C 7,1 °C 72 % 1019,6 hPa 0,0 l/m² 0,63 h 267 W/m² 9,8 km/h (2 Bft) 96,17 %
10.04.2026 11:00 10,7 °C 12,2 °C 8,0 °C 69 % 1020,1 hPa 0,0 l/m² 0,33 h 299 W/m² 8,5 km/h (2 Bft) 96,76 %
10.04.2026 12:00 12,1 °C 15,6 °C 10,5 °C 64 % 1020,1 hPa 0,0 l/m² 0,47 h 381 W/m² 8,7 km/h (2 Bft) 95,37 %
10.04.2026 13:00 12,7 °C 15,7 °C 10,4 °C 61 % 1020,1 hPa 0,0 l/m² 0,50 h 412 W/m² 9,8 km/h (2 Bft) 99,06 %
10.04.2026 14:00 13,3 °C 16,0 °C 9,9 °C 59 % 1020,2 hPa 0,0 l/m² 0,37 h 392 W/m² 9,3 km/h (2 Bft) 96,69 %
10.04.2026 15:00 14,0 °C 16,7 °C 10,2 °C 56 % 1020,0 hPa 0,0 l/m² 0,77 h 399 W/m² 9,3 km/h (2 Bft) 99,47 %
10.04.2026 16:00 14,4 °C 17,4 °C 10,6 °C 54 % 1019,8 hPa 0,0 l/m² 0,70 h 416 W/m² 9,5 km/h (2 Bft) 95,48 %
10.04.2026 17:00 14,0 °C 15,1 °C 9,9 °C 55 % 1019,5 hPa 0,0 l/m² 0,37 h 199 W/m² 7,0 km/h (2 Bft) 97,79 %
10.04.2026 18:00 13,9 °C 15,4 °C 9,7 °C 55 % 1019,1 hPa 0,0 l/m² 0,57 h 164 W/m² 6,5 km/h (2 Bft) 98,64 %
10.04.2026 19:00 13,0 °C 12,1 °C 8,3 °C 57 % 1018,8 hPa 0,0 l/m² 0,00 h 52 W/m² 1,5 km/h (1 Bft) 95,88 %
10.04.2026 20:00 11,9 °C 10,0 °C 6,6 °C 64 % 1018,8 hPa 0,0 l/m² 0,00 h 8 W/m² 0,1 km/h (0 Bft) 98,27 %
10.04.2026 21:00 10,6 °C 9,1 °C 6,0 °C 70 % 1018,6 hPa 0,0 l/m² 0,00 h 0 W/m² 0,0 km/h (0 Bft) 98,43 %
10.04.2026 22:00 9,5 °C 7,9 °C 5,0 °C 71 % 1018,2 hPa 0,0 l/m² 0,00 h 0 W/m² 0,4 km/h (0 Bft) 95,51 %
10.04.2026 23:00 8,3 °C 6,6 °C 3,8 °C 74 % 1017,5 hPa 0,0 l/m² 0,00 h 0 W/m² 0,1 km/h (0 Bft) 96,49 %
11.04.2026 00:00 7,3 °C 5,7 °C 2,9 °C 79 % 1016,9 hPa 0,0 l/m² 0,00 h 0 W/m² 0,0 km/h (0 Bft) 99,38 %
11.04.2026 01:00 7,0 °C 6,5 °C 3,4 °C 80 % 1016,5 hPa 0,0 l/m² 0,00 h 0 W/m² 1,5 km/h (1 Bft) 96,80 %
11.04.2026 02:00 7,0 °C 5,8 °C 2,8 °C 80 % 1015,8 hPa 0,0 l/m² 0,00 h 0 W/m² 1,0 km/h (0 Bft) 97,32 %
11.04.2026 03:00 7,0 °C 6,4 °C 3,2 °C 78 % 1015,5 hPa 0,0 l/m² 0,00 h 0 W/m² 4,5 km/h (1 Bft) 96,26 %
11.04.2026 04:00 6,9 °C 6,0 °C 2,8 °C 78 % 1015,2 hPa 0,0 l/m² 0,00 h 0 W/m² 3,7 km/h (1 Bft) 98,87 %
11.04.2026 05:00 6,8 °C 5,9 °C 2,8 °C 78 % 1014,4 hPa 0,0 l/m² 0,00 h 0 W/m² 4,9 km/h (1 Bft) 97,32 %
11.04.2026 06:00 7,2 °C 6,5 °C 3,1 °C 77 % 1013,8 hPa 0,0 l/m² 0,00 h 6 W/m² 9,2 km/h (2 Bft) 96,64 %
11.04.2026 07:00 7,6 °C 7,2 °C 3,6 °C 75 % 1013,5 hPa 0,0 l/m² 0,00 h 30 W/m² 9,7 km/h (2 Bft) 99,57 %
11.04.2026 08:00 8,6 °C 8,5 °C 4,6 °C 72 % 1012,6 hPa 0,0 l/m² 0,00 h 76 W/m² 17,3 km/h (3 Bft) 95,48 %
11.04.2026 09:00 10,9 °C 12,7 °C 6,8 °C 66 % 1012,1 hPa 0,0 l/m² 1,00 h 327 W/m² 23,4 km/h (4 Bft) 98,58 %
11.04.2026 10:00 12,8 °C 14,1 °C 9,9 °C 63 % 1011,5 hPa 0,0 l/m² 0,83 h 397 W/m² 25,8 km/h (4 Bft) 98,49 %
11.04.2026 11:00 14,7 °C 16,3 °C 11,5 °C 60 % 1010,7 hPa 0,0 l/m² 0,87 h 454 W/m² 24,5 km/h (4 Bft) 97,78 %
11.04.2026 12:00 16,7 °C 20,4 °C 15,0 °C 56 % 1009,6 hPa 0,0 l/m² 0,97 h 554 W/m² 24,1 km/h (4 Bft) 96,06 %
11.04.2026 13:00 18,8 °C 22,3 °C 16,3 °C 49 % 1009,1 hPa 0,0 l/m² 0,87 h 658 W/m² 30,8 km/h (5 Bft) 98,24 %
11.04.2026 14:00 19,7 °C 21,6 °C 15,8 °C 50 % 1008,3 hPa 0,0 l/m² 0,77 h 449 W/m² 28,4 km/h (4 Bft) 95,67 %
11.04.2026 15:00 20,0 °C 20,7 °C 16,0 °C 52 % 1007,6 hPa 0,0 l/m² 0,53 h 345 W/m² 30,7 km/h (5 Bft) 98,69 %
11.04.2026 16:00 20,1 °C 20,0 °C 15,7 °C 53 % 1007,1 hPa 0,0 l/m² 0,23 h 224 W/m² 28,1 km/h (4 Bft) 95,29 %
11.04.2026 17:00 20,0 °C 19,5 °C 15,4 °C 57 % 1007,2 hPa 0,0 l/m² 0,00 h 131 W/m² 23,5 km/h (4 Bft) 99,65 %
11.04.2026 18:00 18,4 °C 16,2 °C 11,1 °C 71 % 1008,1 hPa 1,2 l/m² 0,00 h 19 W/m² 15,0 km/h (3 Bft) 96,94 %
11.04.2026 19:00 15,6 °C 13,7 °C 9,7 °C 89 % 1008,8 hPa 4,3 l/m² 0,00 h 9 W/m² 5,8 km/h (2 Bft) 95,89 %
11.04.2026 20:00 13,5 °C 11,8 °C 8,1 °C 92 % 1009,9 hPa 5,8 l/m² 0,00 h 0 W/m² 14,8 km/h (3 Bft) 96,71 %
11.04.2026 21:00 8,8 °C 8,0 °C 4,0 °C 93 % 1012,4 hPa 0,2 l/m² 0,00 h 0 W/m² 22,6 km/h (4 Bft) 97,65 %
11.04.2026 22:00 8,6 °C 7,8 °C 4,2 °C 93 % 1013,5 hPa 0,0 l/m² 0,00 h 0 W/m² 2,6 km/h (1 Bft) 97,25 %
11.04.2026 23:00 8,6 °C 7,8 °C 4,4 °C 94 % 1013,7 hPa 0,0 l/m² 0,00 h 0 W/m² 1,4 km/h (1 Bft) 96,43 %
12.04.2026 00:00 8,6 °C 8,0 °C 4,3 °C 95 % 1014,1 hPa 0,0 l/m² 0,00 h 0 W/m² 4,9 km/h (1 Bft) 98,72 %
12.04.2026 01:00 8,4 °C 7,9 °C 3,7 °C 93 % 1014,5 hPa 0,0 l/m² 0,00 h 0 W/m² 5,5 km/h (1 Bft) 97,80 %
12.04.2026 02:00 8,0 °C 7,2 °C 3,3 °C 90 % 1014,9 hPa 0,0 l/m² 0,00 h 0 W/m² 1,3 km/h (1 Bft) 95,81 %
12.04.2026 03:00 7,4 °C 6,4 °C 2,7 °C 89 % 1015,3 hPa 0,0 l/m² 0,00 h 0 W/m² 1,3 km/h (1 Bft) 98,24 %
12.04.2026 04:00 6,7 °C 5,8 °C 2,2 °C 88 % 1015,6 hPa 0,0 l/m² 0,00 h 0 W/m² 3,1 km/h (1 Bft) 96,91 %
12.04.2026 05:00 6,2 °C 5,0 °C 1,7 °C 88 % 1016,0 hPa 0,0 l/m² 0,00 h 0 W/m² 1,2 km/h (1 Bft) 98,80 %
12.04.2026 06:00 5,5 °C 4,2 °C 1,1 °C 89 % 1016,3 hPa 0,0 l/m² 0,00 h 5 W/m² 3,0 km/h (1 Bft) 93,88 %
12.04.2026 07:00 5,2 °C 4,7 °C 1,5 °C 90 % 1016,7 hPa 0,0 l/m² 0,00 h 29 W/m² 3,1 km/h (1 Bft) 98,73 %
12.04.2026 08:00 6,2 °C 6,7 °C 3,0 °C 89 % 1017,1 hPa 0,0 l/m² 0,07 h 94 W/m² 8,5 km/h (2 Bft) 97,11 %
12.04.2026 09:00 8,3 °C 9,5 °C 5,1 °C 83 % 1017,2 hPa 0,0 l/m² 0,23 h 197 W/m² 8,1 km/h (2 Bft) 97,06 %
12.04.2026 10:00 9,9 °C 11,6 °C 7,1 °C 77 % 1017,1 hPa 0,0 l/m² 0,80 h 281 W/m² 6,5 km/h (2 Bft) 98,99 %
12.04.2026 11:00 11,3 °C 12,8 °C 8,3 °C 68 % 1017,2 hPa 0,0 l/m² 0,88 h 329 W/m² 13,3 km/h (3 Bft) 97,07 %
12.04.2026 12:00 12,4 °C 14,7 °C 10,0 °C 65 % 1017,2 hPa 0,0 l/m² 1,00 h 399 W/m² 14,2 km/h (3 Bft) 96,48 %
12.04.2026 13:00 13,1 °C 15,4 °C 10,6 °C 62 % 1016,9 hPa 0,0 l/m² 1,00 h 432 W/m² 15,5 km/h (3 Bft) 99,36 %
12.04.2026 14:00 13,8 °C 15,8 °C 10,5 °C 61 % 1016,6 hPa 0,0 l/m² 1,00 h 436 W/m² 17,0 km/h (3 Bft) 96,78 %
12.04.2026 15:00 14,2 °C 15,5 °C 10,6 °C 57 % 1016,2 hPa 0,0 l/m² 0,97 h 354 W/m² 16,0 km/h (3 Bft) 98,32 %
12.04.2026 16:00 14,0 °C 14,6 °C 10,0 °C 55 % 1015,8 hPa 0,0 l/m² 0,60 h 289 W/m² 15,8 km/h (3 Bft) 95,89 %
12.04.2026 17:00 14,1 °C 14,8 °C 10,0 °C 55 % 1015,6 hPa 0,0 l/m² 0,93 h 250 W/m² 12,9 km/h (3 Bft) 98,87 %
12.04.2026 18:00 13,9 °C 14,4 °C 9,7 °C 56 % 1015,5 hPa 0,0 l/m² 0,93 h 175 W/m² 11,8 km/h (2 Bft) 95,93 %
12.04.2026 19:00 12,9 °C 11,8 °C 8,2 °C 58 % 1015,7 hPa 0,0 l/m² 0,00 h 51 W/m² 7,1 km/h (2 Bft) 97,32 %
12.04.2026 20:00 11,7 °C 9,9 °C 6,6 °C 64 % 1015,8 hPa 0,0 l/m² 0,00 h 10 W/m² 1,0 km/h (0 Bft) 98,27 %
12.04.2026 21:00 10,2 °C 8,1 °C 5,1 °C 75 % 1015,8 hPa 0,0 l/m² 0,00 h 0 W/m² 0,0 km/h (0 Bft) 98,05 %
12.04.2026 22:00 9,1 °C 7,4 °C 4,2 °C 79 % 1015,7 hPa 0,0 l/m² 0,00 h 0 W/m² 0,0 km/h (0 Bft) 96,79 %
12.04.2026 23:00 8,2 °C 6,6 °C 3,5 °C 82 % 1015,5 hPa 0,0 l/m² 0,00 h 0 W/m² 0,0 km/h (0 Bft) 96,29 %
Min-Datum _ 07.04.26 08.04.26 06.04.26 08.04.26 11.04.26 - - - 06.04.26 08.04.26
_ Min-Zeit 06:40 06:50 06:40 14:48 16:16 - - - 02:20 04:54
Minimum _ 3,9 °C 2,8 °C 0,0 °C 36 % 1007,0 hPa - - - 0,0 km/h (0 Bft) 29,03 %
Max-Datum _ 08.04.26 08.04.26 08.04.26 12.04.26 06.04.26 11.04.26 06.04.26 11.04.26 11.04.26 06.04.26
_ Max-Zeit 17:08 14:16 12:40 00:28 11:30 20:16 07:18 13:42 21:10 01:22
Maximum _ 23,9 °C 32,2 °C 22,8 °C 95 % 1029,7 hPa 5,8 l/m² 0,03 h 956 W/m² 57,9 km/h
N (7 Bft)
100,00 %
Durchschnitt _ 12,1 °C 12,9 °C 8,1 °C 67 % 1020,7 hPa #11,8 l/m² #53:45 h 296 W/m² 8,2 km/h (2 Bft) 97,31 %
© 2026 W. Hausmann